createdAt,value
2023-05-03T00:02:25.474Z,101265.38
2023-05-03T00:04:54.528Z,101263.16
2023-05-03T00:07:23.066Z,101263.67
2023-05-03T00:09:50.331Z,101265.39
2023-05-03T00:12:17.371Z,101266.67
2023-05-03T00:14:45.781Z,101269.29
2023-05-03T00:17:13.137Z,101268.04
2023-05-03T00:19:40.185Z,101268.09
2023-05-03T00:22:07.714Z,101269.15
2023-05-03T00:24:35.207Z,101266.29
2023-05-03T00:27:03.696Z,101262.73
2023-05-03T00:29:30.753Z,101262.08
2023-05-03T00:31:57.749Z,101264.56
2023-05-03T00:34:24.736Z,101264.27
2023-05-03T00:36:52.074Z,101265.19
2023-05-03T00:39:19.123Z,101262.61
2023-05-03T00:41:46.183Z,101262.65
2023-05-03T00:44:13.248Z,101263.40
2023-05-03T00:46:40.527Z,101262.30
2023-05-03T00:49:07.520Z,101257.77
2023-05-03T00:51:34.536Z,101260.36
2023-05-03T00:54:01.549Z,101259.09
2023-05-03T00:56:30.990Z,101256.42
2023-05-03T00:58:58.283Z,101258.53
2023-05-03T01:01:25.917Z,101258.55
2023-05-03T01:03:53.086Z,101256.49
2023-05-03T01:06:38.843Z,101253.73
2023-05-03T01:09:15.189Z,101254.01
2023-05-03T01:11:44.677Z,101255.88
2023-05-03T01:14:27.009Z,101252.30
2023-05-03T01:16:56.557Z,101252.74
2023-05-03T01:19:33.807Z,101249.30
2023-05-03T01:22:36.608Z,101244.88
2023-05-03T01:25:11.464Z,101243.74
2023-05-03T01:27:39.205Z,101241.79
2023-05-03T01:30:07.888Z,101242.82
2023-05-03T01:32:44.441Z,101240.49
2023-05-03T01:35:20.420Z,101235.20
2023-05-03T01:37:48.362Z,101229.25
2023-05-03T01:40:17.042Z,101227.37
2023-05-03T01:42:44.036Z,101225.91
2023-05-03T01:45:11.493Z,101225.09
2023-05-03T01:47:38.488Z,101226.37
2023-05-03T01:50:05.804Z,101219.40
2023-05-03T01:52:33.549Z,101219.94
2023-05-03T01:55:00.575Z,101228.67
2023-05-03T01:57:27.615Z,101228.12
2023-05-03T01:59:54.617Z,101225.85
2023-05-03T02:02:22.537Z,101225.39
2023-05-03T02:04:50.058Z,101224.27
2023-05-03T02:07:17.041Z,101221.73
2023-05-03T02:09:45.913Z,101223.73
2023-05-03T02:12:12.957Z,101220.70
2023-05-03T02:14:41.275Z,101217.67
2023-05-03T02:17:10.581Z,101221.27
2023-05-03T02:19:37.975Z,101221.48
2023-05-03T02:22:04.901Z,101220.25
2023-05-03T02:24:36.328Z,101223.67
2023-05-03T02:27:07.264Z,101223.53
2023-05-03T02:29:34.282Z,101219.40
2023-05-03T02:32:01.930Z,101227.27
2023-05-03T02:34:28.937Z,101225.85
2023-05-03T02:36:55.979Z,101223.21
2023-05-03T02:39:23.158Z,101231.58
2023-05-03T02:41:50.304Z,101232.95
2023-05-03T02:44:17.307Z,101237.98
2023-05-03T02:46:44.569Z,101239.05
2023-05-03T02:49:11.882Z,101240.30
2023-05-03T02:51:38.879Z,101238.75
2023-05-03T02:54:06.021Z,101238.02
2023-05-03T02:56:33.846Z,101239.81
2023-05-03T02:59:00.804Z,101238.41
2023-05-03T03:01:28.996Z,101238.00
2023-05-03T03:03:56.750Z,101238.98
2023-05-03T03:06:23.773Z,101235.23
2023-05-03T03:08:50.790Z,101229.08
2023-05-03T03:11:18.325Z,101229.73
2023-05-03T03:13:45.301Z,101237.02
2023-05-03T03:16:13.665Z,101236.73
2023-05-03T03:18:40.926Z,101237.52
2023-05-03T03:21:08.309Z,101239.81
2023-05-03T03:23:35.468Z,101248.80
2023-05-03T03:26:03.538Z,101246.95
2023-05-03T03:28:30.591Z,101245.31
2023-05-03T03:30:58.217Z,101243.06
2023-05-03T03:33:26.020Z,101245.02
2023-05-03T03:35:54.969Z,101244.02
2023-05-03T03:38:22.135Z,101240.23
2023-05-03T03:40:54.313Z,101238.33
2023-05-03T03:43:21.502Z,101239.00
2023-05-03T03:45:48.922Z,101236.93
2023-05-03T03:48:16.246Z,101237.25
2023-05-03T03:50:43.226Z,101235.92
2023-05-03T03:53:11.801Z,101236.98
2023-05-03T03:55:39.056Z,101232.46
2023-05-03T03:58:07.250Z,101233.40
2023-05-03T04:00:34.973Z,101231.48
2023-05-03T04:03:07.538Z,101228.93
2023-05-03T04:05:35.873Z,101226.22
2023-05-03T04:08:03.256Z,101231.67
2023-05-03T04:10:31.766Z,101236.63
2023-05-03T04:12:59.124Z,101241.40
2023-05-03T04:15:26.326Z,101244.02
2023-05-03T04:17:54.104Z,101246.38
2023-05-03T04:20:21.719Z,101247.34
2023-05-03T04:22:50.002Z,101251.64
2023-05-03T04:25:18.433Z,101243.98
2023-05-03T04:27:51.659Z,101239.34
2023-05-03T04:30:20.883Z,101238.33
2023-05-03T04:32:54.406Z,101239.57
2023-05-03T04:35:22.859Z,101240.28
2023-05-03T04:37:49.806Z,101240.64
2023-05-03T04:40:19.947Z,101242.02
2023-05-03T04:42:51.815Z,101249.39
2023-05-03T04:45:19.033Z,101253.29
2023-05-03T04:47:46.760Z,101252.45
2023-05-03T04:50:13.820Z,101253.35
2023-05-03T04:52:42.519Z,101257.66
2023-05-03T04:55:09.956Z,101257.23
2023-05-03T04:57:37.064Z,101265.04
2023-05-03T05:00:11.651Z,101268.17
2023-05-03T05:02:41.376Z,101274.64
2023-05-03T05:05:09.688Z,101273.52
2023-05-03T05:07:37.059Z,101272.76
2023-05-03T05:10:04.916Z,101265.75
2023-05-03T05:12:32.355Z,101267.20
2023-05-03T05:15:00.179Z,101265.70
2023-05-03T05:17:27.585Z,101272.01
2023-05-03T05:19:54.725Z,101267.41
2023-05-03T05:22:21.876Z,101272.25
2023-05-03T05:24:53.419Z,101268.64
2023-05-03T05:27:20.594Z,101268.02
2023-05-03T05:29:48.150Z,101269.29
2023-05-03T05:32:15.218Z,101263.20
2023-05-03T05:34:44.635Z,101263.48
2023-05-03T05:37:13.607Z,101264.59
2023-05-03T05:39:41.436Z,101263.07
2023-05-03T05:42:08.753Z,101264.11
2023-05-03T05:44:35.867Z,101261.21
2023-05-03T05:47:03.541Z,101259.52
2023-05-03T05:49:30.654Z,101259.45
2023-05-03T05:51:58.009Z,101259.97
2023-05-03T05:54:24.985Z,101256.90
2023-05-03T05:56:52.273Z,101254.00
2023-05-03T05:59:19.645Z,101254.62
2023-05-03T06:01:46.807Z,101250.73
2023-05-03T06:04:16.858Z,101247.30
2023-05-03T06:06:45.355Z,101240.11
2023-05-03T06:09:24.051Z,101241.34
2023-05-03T06:11:55.489Z,101239.38
2023-05-03T06:14:23.554Z,101243.11
2023-05-03T06:16:51.875Z,101239.45
2023-05-03T06:19:18.939Z,101231.80
2023-05-03T06:21:46.245Z,101229.48
2023-05-03T06:24:14.995Z,101233.68
2023-05-03T06:26:42.034Z,101227.80
2023-05-03T06:29:10.951Z,101223.88
2023-05-03T06:31:38.038Z,101223.61
2023-05-03T06:34:05.030Z,101227.09
2023-05-03T06:36:33.028Z,101223.19
2023-05-03T06:39:00.402Z,101223.63
2023-05-03T06:41:27.397Z,101221.98
2023-05-03T06:43:54.441Z,101222.40
2023-05-03T06:46:21.988Z,101217.02
2023-05-03T06:48:49.134Z,101216.80
2023-05-03T06:51:16.200Z,101223.38
2023-05-03T06:53:43.250Z,101226.02
2023-05-03T06:56:10.224Z,101213.67
2023-05-03T06:58:37.393Z,101218.48
2023-05-03T07:01:04.415Z,101211.65
2023-05-03T07:03:31.486Z,101216.69
2023-05-03T07:05:59.160Z,101209.04
2023-05-03T07:08:26.492Z,101214.09
2023-05-03T07:10:53.490Z,101206.44
2023-05-03T07:13:20.980Z,101207.82
2023-05-03T07:15:48.072Z,101202.49
2023-05-03T07:18:15.154Z,101211.73
2023-05-03T07:20:42.238Z,101205.77
2023-05-03T07:23:09.475Z,101203.35
2023-05-03T07:25:36.494Z,101202.39
2023-05-03T07:28:03.963Z,101203.27
2023-05-03T07:30:31.004Z,101201.84
2023-05-03T07:32:58.069Z,101200.17
2023-05-03T07:35:26.920Z,101202.64
2023-05-03T07:37:53.917Z,101195.70
2023-05-03T07:40:20.971Z,101194.44
2023-05-03T07:42:48.083Z,101199.01
2023-05-03T07:45:15.064Z,101190.77
2023-05-03T07:47:42.166Z,101185.23
2023-05-03T07:50:09.559Z,101193.11
2023-05-03T07:52:37.549Z,101193.39
2023-05-03T07:55:05.489Z,101189.73
2023-05-03T07:57:32.907Z,101181.98
2023-05-03T07:59:59.940Z,101185.16
2023-05-03T08:02:27.382Z,101187.54
2023-05-03T08:04:55.452Z,101182.78
2023-05-03T08:07:23.524Z,101185.52
2023-05-03T08:09:53.753Z,101177.08
2023-05-03T08:12:20.819Z,101179.41
2023-05-03T08:14:47.831Z,101183.41
2023-05-03T08:17:14.856Z,101174.30
2023-05-03T08:19:42.699Z,101171.60
2023-05-03T08:22:12.702Z,101171.62
2023-05-03T08:24:39.736Z,101180.46
2023-05-03T08:27:06.674Z,101174.84
2023-05-03T08:29:37.149Z,101182.00
2023-05-03T08:32:04.759Z,101173.79
2023-05-03T08:34:32.138Z,101176.70
2023-05-03T08:36:59.741Z,101172.20
2023-05-03T08:39:27.050Z,101179.23
2023-05-03T08:41:56.038Z,101170.86
2023-05-03T08:44:23.543Z,101178.11
2023-05-03T08:46:50.828Z,101165.06
2023-05-03T08:49:18.165Z,101165.05
2023-05-03T08:51:49.866Z,101160.70
2023-05-03T08:54:18.340Z,101161.74
2023-05-03T08:56:47.372Z,101158.77
2023-05-03T08:59:16.559Z,101158.04
2023-05-03T09:01:43.899Z,101159.20
2023-05-03T09:04:11.681Z,101155.75
2023-05-03T09:06:38.934Z,101161.74
2023-05-03T09:09:09.970Z,101161.88
2023-05-03T09:11:38.302Z,101156.17
2023-05-03T09:14:09.581Z,101156.48
2023-05-03T09:16:36.711Z,101163.40
2023-05-03T09:19:05.130Z,101156.60
2023-05-03T09:21:33.754Z,101153.10
2023-05-03T09:24:01.817Z,101152.77
2023-05-03T09:26:30.024Z,101156.36
2023-05-03T09:28:58.881Z,101153.98
2023-05-03T09:31:26.253Z,101158.34
2023-05-03T09:33:53.698Z,101158.96
2023-05-03T09:36:20.735Z,101158.83
2023-05-03T09:38:47.795Z,101156.97
2023-05-03T09:41:15.319Z,101152.98
2023-05-03T09:43:52.653Z,101148.02
2023-05-03T09:46:20.754Z,101154.90
2023-05-03T09:48:49.592Z,101152.82
2023-05-03T09:51:16.673Z,101152.77
2023-05-03T09:53:43.608Z,101150.55
2023-05-03T09:56:13.468Z,101144.77
2023-05-03T09:58:41.078Z,101153.88
2023-05-03T10:01:09.494Z,101150.08
2023-05-03T10:03:41.842Z,101145.86
2023-05-03T10:06:24.460Z,101154.61
2023-05-03T10:09:12.389Z,101150.33
2023-05-03T10:11:39.496Z,101149.04
2023-05-03T10:14:09.768Z,101152.36
2023-05-03T10:16:38.815Z,101152.33
2023-05-03T10:19:14.395Z,101154.66
2023-05-03T10:22:06.852Z,101156.56
2023-05-03T10:24:34.939Z,101160.33
2023-05-03T10:27:02.165Z,101154.17
2023-05-03T10:29:46.136Z,101155.66
2023-05-03T10:32:44.607Z,101153.80
2023-05-03T10:35:15.690Z,101149.30
2023-05-03T10:37:43.036Z,101146.34
2023-05-03T10:40:15.361Z,101158.48
2023-05-03T10:42:46.885Z,101156.43
2023-05-03T10:45:29.404Z,101156.20
2023-05-03T10:48:11.727Z,101150.98
2023-05-03T10:50:39.903Z,101140.84
2023-05-03T10:53:06.926Z,101145.56
2023-05-03T10:55:34.189Z,101143.73
2023-05-03T10:58:01.379Z,101145.96
2023-05-03T11:00:41.490Z,101141.16
2023-05-03T11:03:35.803Z,101140.89
2023-05-03T11:06:04.220Z,101135.87
2023-05-03T11:08:37.558Z,101140.83
2023-05-03T11:11:09.974Z,101133.86
2023-05-03T11:13:37.500Z,101131.77
2023-05-03T11:16:07.957Z,101129.20
2023-05-03T11:18:35.040Z,101123.13
2023-05-03T11:21:02.210Z,101124.27
2023-05-03T11:23:29.865Z,101128.55
2023-05-03T11:25:58.240Z,101129.52
2023-05-03T11:28:28.704Z,101125.52
2023-05-03T11:30:56.029Z,101121.28
2023-05-03T11:33:23.015Z,101121.87
2023-05-03T11:35:50.519Z,101116.87
2023-05-03T11:38:17.592Z,101120.27
2023-05-03T11:40:44.644Z,101117.64
2023-05-03T11:43:11.715Z,101119.73
2023-05-03T11:45:44.285Z,101117.23
2023-05-03T11:48:14.828Z,101118.41
2023-05-03T11:50:56.000Z,101117.88
2023-05-03T11:53:23.975Z,101119.65
2023-05-03T11:55:53.457Z,101117.84
2023-05-03T11:58:23.564Z,101115.15
2023-05-03T12:00:51.493Z,101110.58
2023-05-03T12:03:19.713Z,101110.14
2023-05-03T12:05:48.764Z,101102.60
2023-05-03T12:08:20.914Z,101097.27
2023-05-03T12:10:49.970Z,101100.19
2023-05-03T12:13:38.743Z,101099.73
2023-05-03T12:18:47.379Z,101087.70
2023-05-03T12:23:46.631Z,101085.83
2023-05-03T12:26:15.267Z,101078.38
2023-05-03T12:28:42.512Z,101075.58
2023-05-03T12:33:38.969Z,101069.71
2023-05-03T12:36:09.786Z,101066.58
2023-05-03T12:38:37.954Z,101066.67
2023-05-03T12:41:08.794Z,101061.70
2023-05-03T12:43:36.601Z,101061.67
2023-05-03T12:48:34.029Z,101061.58
2023-05-03T12:51:18.398Z,101052.13
2023-05-03T12:53:54.795Z,101053.48
2023-05-03T12:56:24.705Z,101045.17
2023-05-03T12:59:15.120Z,101046.00
2023-05-03T13:06:43.824Z,101039.11
2023-05-03T13:09:19.308Z,101039.44
2023-05-03T13:11:50.350Z,101033.94
2023-05-03T13:14:18.295Z,101033.16
2023-05-03T13:16:46.830Z,101032.52
2023-05-03T13:19:13.910Z,101034.51
2023-05-03T13:21:40.968Z,101033.38
2023-05-03T13:24:08.067Z,101035.40
2023-05-03T13:26:35.535Z,101039.52
2023-05-03T13:29:03.377Z,101034.15
2023-05-03T13:31:30.628Z,101029.73
2023-05-03T13:33:57.689Z,101024.67
2023-05-03T13:36:25.060Z,101021.08
2023-05-03T13:38:52.243Z,101022.15
2023-05-03T13:41:22.735Z,101019.17
2023-05-03T13:43:49.887Z,101024.88
2023-05-03T13:46:17.174Z,101023.09
2023-05-03T13:48:44.272Z,101023.27
2023-05-03T13:51:13.035Z,101024.10
2023-05-03T13:53:40.165Z,101021.36
2023-05-03T13:56:07.822Z,101022.02
2023-05-03T13:58:36.369Z,101024.52
2023-05-03T14:01:03.735Z,101020.67
2023-05-03T14:03:32.018Z,101022.25
2023-05-03T14:05:59.125Z,101022.73
2023-05-03T14:08:26.240Z,101028.92
2023-05-03T14:10:53.530Z,101026.64
2023-05-03T14:13:20.583Z,101023.48
2023-05-03T14:15:47.641Z,101023.30
2023-05-03T14:18:14.829Z,101023.98
2023-05-03T14:20:42.529Z,101022.70
2023-05-03T14:23:09.821Z,101017.48
2023-05-03T14:25:36.854Z,101016.38
2023-05-03T14:28:05.429Z,101018.20
2023-05-03T14:30:32.998Z,101017.40
2023-05-03T14:33:00.480Z,101016.63
2023-05-03T14:35:27.546Z,101019.52
2023-05-03T14:37:55.640Z,101016.98
2023-05-03T14:40:22.704Z,101015.70
2023-05-03T14:42:50.166Z,101018.17
2023-05-03T14:45:17.233Z,101018.30
2023-05-03T14:47:44.246Z,101017.69
2023-05-03T14:50:11.311Z,101018.39
2023-05-03T14:52:38.396Z,101019.92
2023-05-03T14:55:06.949Z,101017.98
2023-05-03T14:57:34.247Z,101013.41
2023-05-03T15:00:07.556Z,101019.07
2023-05-03T15:02:35.056Z,101013.44
2023-05-03T15:05:04.591Z,101017.95
2023-05-03T15:07:31.907Z,101022.28
2023-05-03T15:09:59.077Z,101022.71
2023-05-03T15:12:26.928Z,101024.74
2023-05-03T15:14:53.868Z,101027.52
2023-05-03T15:17:21.092Z,101027.17
2023-05-03T15:19:48.319Z,101025.79
2023-05-03T15:22:15.303Z,101028.27
2023-05-03T15:24:42.378Z,101030.29
2023-05-03T15:27:09.383Z,101026.02
2023-05-03T15:29:36.401Z,101028.38
2023-05-03T15:32:03.741Z,101031.14
2023-05-03T15:34:31.056Z,101028.33
2023-05-03T15:36:58.126Z,101028.48
2023-05-03T15:39:25.259Z,101035.89
2023-05-03T15:41:52.358Z,101032.61
2023-05-03T15:44:19.319Z,101036.10
2023-05-03T15:46:46.469Z,101036.57
2023-05-03T15:49:13.516Z,101037.20
2023-05-03T15:51:40.583Z,101038.61
2023-05-03T15:54:07.606Z,101041.66
2023-05-03T15:56:34.529Z,101042.57
2023-05-03T15:59:01.596Z,101044.10
2023-05-03T16:01:29.223Z,101043.71
2023-05-03T16:03:56.702Z,101044.89
2023-05-03T16:06:23.636Z,101045.71
2023-05-03T16:08:51.214Z,101044.58
2023-05-03T16:11:18.241Z,101046.79
2023-05-03T16:13:45.276Z,101045.25
2023-05-03T16:16:12.440Z,101047.40
2023-05-03T16:18:39.525Z,101048.94
2023-05-03T16:21:06.611Z,101050.48
2023-05-03T16:23:33.638Z,101049.18
2023-05-03T16:26:01.209Z,101054.96
2023-05-03T16:28:28.274Z,101056.92
2023-05-03T16:30:55.276Z,101056.41
2023-05-03T16:33:22.515Z,101056.83
2023-05-03T16:35:50.118Z,101062.95
2023-05-03T16:38:17.478Z,101061.02
2023-05-03T16:40:46.187Z,101062.98
2023-05-03T16:43:15.775Z,101064.32
2023-05-03T16:45:43.060Z,101067.60
2023-05-03T16:48:11.075Z,101071.58
2023-05-03T16:50:40.615Z,101073.29
2023-05-03T16:53:11.886Z,101072.23
2023-05-03T16:55:38.898Z,101079.69
2023-05-03T16:58:07.272Z,101079.08
2023-05-03T17:00:34.415Z,101080.33
2023-05-03T17:03:01.420Z,101082.73
2023-05-03T17:05:33.247Z,101080.44
2023-05-03T17:08:01.525Z,101079.13
2023-05-03T17:10:29.095Z,101079.89
2023-05-03T17:12:56.692Z,101082.25
2023-05-03T17:15:23.698Z,101082.59
2023-05-03T17:17:52.109Z,101085.17
2023-05-03T17:20:19.771Z,101083.63
2023-05-03T17:22:47.347Z,101082.65
2023-05-03T17:25:14.506Z,101086.23
2023-05-03T17:27:43.804Z,101086.64
2023-05-03T17:30:11.686Z,101088.55
2023-05-03T17:32:42.069Z,101089.19
2023-05-03T17:35:11.488Z,101091.39
2023-05-03T17:37:38.626Z,101095.91
2023-05-03T17:40:09.110Z,101093.90
2023-05-03T17:42:36.141Z,101098.23
2023-05-03T17:45:04.360Z,101098.38
2023-05-03T17:47:32.474Z,101102.73
2023-05-03T17:49:59.532Z,101106.67
2023-05-03T17:52:26.528Z,101107.66
2023-05-03T17:54:53.955Z,101113.52
2023-05-03T17:57:21.175Z,101116.70
2023-05-03T17:59:48.697Z,101120.77
2023-05-03T18:02:15.971Z,101122.65
2023-05-03T18:04:42.982Z,101121.80
2023-05-03T18:07:10.214Z,101129.47
2023-05-03T18:09:38.300Z,101124.66
2023-05-03T18:12:05.802Z,101132.66
2023-05-03T18:14:36.263Z,101135.95
2023-05-03T18:17:03.283Z,101135.92
2023-05-03T18:19:30.471Z,101135.66
2023-05-03T18:21:57.812Z,101141.29
2023-05-03T18:24:24.985Z,101145.05
2023-05-03T18:26:54.400Z,101146.13
2023-05-03T18:29:25.558Z,101149.31
2023-05-03T18:31:55.665Z,101147.86
2023-05-03T18:34:22.953Z,101146.61
2023-05-03T18:36:50.090Z,101146.55
2023-05-03T18:39:17.433Z,101147.45
2023-05-03T18:41:44.463Z,101147.13
2023-05-03T18:44:11.492Z,101149.82
2023-05-03T18:46:38.573Z,101153.18
2023-05-03T18:49:06.393Z,101157.80
2023-05-03T18:51:33.619Z,101164.88
2023-05-03T18:54:00.652Z,101169.88
2023-05-03T18:56:30.418Z,101174.06
2023-05-03T18:58:57.397Z,101168.48
2023-05-03T19:01:26.675Z,101175.30
2023-05-03T19:03:54.297Z,101177.05
2023-05-03T19:06:21.501Z,101182.48
2023-05-03T19:08:49.771Z,101187.11
2023-05-03T19:11:17.275Z,101191.21
2023-05-03T19:13:47.580Z,101190.73
2023-05-03T19:16:17.408Z,101191.91
2023-05-03T19:18:45.613Z,101193.39
2023-05-03T19:21:12.731Z,101197.69
2023-05-03T19:23:43.844Z,101199.73
2023-05-03T19:26:10.865Z,101202.55
2023-05-03T19:28:37.916Z,101205.86
2023-05-03T19:31:05.979Z,101208.20
2023-05-03T19:33:33.092Z,101208.64
2023-05-03T19:36:06.732Z,101212.36
2023-05-03T19:38:36.587Z,101216.48
2023-05-03T19:41:12.064Z,101225.45
2023-05-03T19:43:39.794Z,101231.39
2023-05-03T19:46:07.397Z,101231.24
2023-05-03T19:48:34.623Z,101233.09
2023-05-03T19:51:02.639Z,101235.91
2023-05-03T19:53:30.035Z,101238.96
2023-05-03T19:56:03.118Z,101240.45
2023-05-03T19:58:31.964Z,101242.65
2023-05-03T20:00:59.408Z,101249.85
2023-05-03T20:03:27.599Z,101250.93
2023-05-03T20:05:54.891Z,101255.88
2023-05-03T20:08:22.768Z,101258.77
2023-05-03T20:10:50.361Z,101256.94
2023-05-03T20:13:17.536Z,101259.98
2023-05-03T20:15:44.552Z,101262.23
2023-05-03T20:18:11.535Z,101263.42
2023-05-03T20:20:38.569Z,101262.70
2023-05-03T20:23:05.592Z,101261.88
2023-05-03T20:25:32.560Z,101256.41
2023-05-03T20:27:59.488Z,101254.23
2023-05-03T20:30:28.844Z,101250.89
2023-05-03T20:32:55.924Z,101251.20
2023-05-03T20:35:23.066Z,101253.86
2023-05-03T20:37:50.079Z,101247.31
2023-05-03T20:40:17.099Z,101245.23
2023-05-03T20:42:44.043Z,101246.19
2023-05-03T20:45:11.229Z,101248.92
2023-05-03T20:47:38.151Z,101256.16
2023-05-03T20:50:06.221Z,101259.25
2023-05-03T20:52:33.412Z,101259.40
2023-05-03T20:55:00.444Z,101256.88
2023-05-03T20:57:27.985Z,101256.41
2023-05-03T20:59:54.972Z,101257.18
2023-05-03T21:02:22.113Z,101257.56
2023-05-03T21:04:49.126Z,101265.17
2023-05-03T21:07:16.150Z,101265.04
2023-05-03T21:09:43.105Z,101268.95
2023-05-03T21:12:10.206Z,101274.39
2023-05-03T21:14:37.144Z,101276.30
2023-05-03T21:17:04.505Z,101280.63
2023-05-03T21:19:31.563Z,101285.07
2023-05-03T21:21:58.552Z,101287.87
2023-05-03T21:24:25.947Z,101295.05
2023-05-03T21:26:52.901Z,101294.98
2023-05-03T21:29:19.903Z,101299.89
2023-05-03T21:32:11.947Z,101299.75
2023-05-03T21:34:39.290Z,101297.91
2023-05-03T21:37:06.269Z,101299.33
2023-05-03T21:39:34.120Z,101297.91
2023-05-03T21:42:01.102Z,101300.13
2023-05-03T21:44:28.088Z,101295.63
2023-05-03T21:46:55.226Z,101298.29
2023-05-03T21:49:22.568Z,101295.67
2023-05-03T21:51:50.243Z,101298.71
2023-05-03T21:54:19.168Z,101302.31
2023-05-03T21:56:46.184Z,101293.73
2023-05-03T21:59:13.285Z,101295.90
2023-05-03T22:01:40.470Z,101297.33
2023-05-03T22:04:07.813Z,101298.04
2023-05-03T22:06:34.912Z,101294.48
2023-05-03T22:09:02.015Z,101293.56
2023-05-03T22:11:29.240Z,101293.16
2023-05-03T22:14:06.619Z,101286.31
2023-05-03T22:16:35.317Z,101286.88
2023-05-03T22:19:02.363Z,101281.63
2023-05-03T22:21:29.380Z,101279.73
2023-05-03T22:23:56.320Z,101278.53
2023-05-03T22:26:24.416Z,101281.16
2023-05-03T22:28:52.136Z,101277.34
2023-05-03T22:31:19.110Z,101277.38
2023-05-03T22:33:47.368Z,101284.48
2023-05-03T22:36:14.751Z,101285.77
2023-05-03T22:38:43.097Z,101286.70
2023-05-03T22:41:10.514Z,101285.52
2023-05-03T22:43:37.807Z,101282.42
2023-05-03T22:46:04.939Z,101280.26
2023-05-03T22:48:34.698Z,101278.27
2023-05-03T22:51:01.646Z,101282.98
2023-05-03T22:53:28.655Z,101277.59
2023-05-03T22:55:58.027Z,101281.87
2023-05-03T22:58:25.818Z,101280.96
2023-05-03T23:00:53.226Z,101281.68
2023-05-03T23:03:20.824Z,101287.63
2023-05-03T23:05:48.296Z,101284.59
2023-05-03T23:08:15.537Z,101288.57
2023-05-03T23:10:42.529Z,101282.42
2023-05-03T23:13:09.724Z,101275.14
2023-05-03T23:15:37.092Z,101270.55
2023-05-03T23:18:04.276Z,101267.35
2023-05-03T23:20:31.275Z,101261.94
2023-05-03T23:22:58.202Z,101262.74
2023-05-03T23:25:25.523Z,101266.67
2023-05-03T23:27:52.626Z,101266.13
2023-05-03T23:30:20.084Z,101267.61
2023-05-03T23:32:47.680Z,101264.44
2023-05-03T23:35:16.049Z,101265.48
2023-05-03T23:37:43.018Z,101268.64
2023-05-03T23:40:10.238Z,101269.09
2023-05-03T23:42:39.749Z,101273.31
2023-05-03T23:45:08.715Z,101272.63
2023-05-03T23:47:36.117Z,101269.89
2023-05-03T23:50:03.253Z,101264.30
2023-05-03T23:52:30.461Z,101263.87
2023-05-03T23:54:57.473Z,101262.69
2023-05-03T23:57:24.475Z,101254.92
2023-05-03T23:59:51.788Z,101257.20
